Terminal Aerodrome Forecast
Issued by NWS

Home | Current Version | Previous Version | Text Only | Print | Product List | Glossary On
Versions: 1 2 3 4 5 6 7 8 9 10 11 12 13 14 15 16 17 18 19 20 21 22 23 24
000
FTUS44 KLZK 260300 AAC
TAFHRO
TAF AMD
KHRO 260317Z 2603/2624 14008KT P6SM -RA VCTS SCT015 BKN035CB OVC080
      TEMPO 2603/2607 3SM -TSRA BR OVC020CB
     FM260700 15008KT 5SM -RA BR OVC015
     FM261400 20008KT P6SM BKN025
     FM261800 24007KT P6SM SCT250=

USA.gov is the U.S. government's official web portal to all federal, state and local government web resources and services.